Rechercher aéroport 
image banner adimage banner adimage banner ad
image banner ad

CA98 - Platform Ocs P-0188 Hondo

Situé à Santa Barbara, United States

ICAO - CA98, IATA -

Données fournies par Airmate  

Information générale

Coordonnées: N34°23'27" W120°7'17"
Élévation : 142 feet MSL.
Variation magnétique : 14° East
Voir autres Aéroports à California

Données opérationnelles

Special qualification required
Heure actuelle UTC:
Heure actuelle locale:
Météo à : KIZA - Santa Ynez ( 24 km )
METAR: KIZA 300015Z AUTO 27010KT 10SM CLR 26/13 A2990 RMK AO2
Voir NOTAMs / SUP AIP / TFR affectant cet aéroport [VIEW]
Fréquences de communication: [VIEW]

Pistes:

Coordonnées de l'aéroport

Adresse: Santa Barbara United States

Vue satellite de CA98